Time;durP1;ratioP1;P1;durP2;ratioP2;P2;SDS_P1;SDS_P2;PMS_P1;PMS_P2;Temp;Humidity;BMP_temperature;BMP_pressure;BME280_temperature;BME280_humidity;BME280_pressure;Samples;Min_cycle;Max_cycle;Signal;HPM_P1;HPM_P2
2023/09/13 00:01:31;;;;;;;1.40;1.00;;;24.70;45.50;;;;;;4955721;28;20411;-48
2023/09/13 00:03:58;;;;;;;1.90;1.20;;;24.70;45.70;;;;;;4956141;28;20420;-49
2023/09/13 00:06:24;;;;;;;1.50;1.00;;;24.70;45.90;;;;;;4956084;28;20614;-50
2023/09/13 00:08:50;;;;;;;2.30;1.80;;;24.70;45.80;;;;;;4956074;28;20547;-49
2023/09/13 00:11:16;;;;;;;2.23;1.73;;;24.60;45.70;;;;;;4955686;28;20416;-49
2023/09/13 00:13:42;;;;;;;4.47;2.07;;;24.60;45.70;;;;;;4955886;28;20424;-48
2023/09/13 00:16:08;;;;;;;2.57;1.20;;;24.60;45.60;;;;;;4955519;28;20236;-50
2023/09/13 00:18:34;;;;;;;2.30;1.60;;;24.60;45.80;;;;;;4955677;28;20464;-49
2023/09/13 00:21:00;;;;;;;2.03;1.80;;;24.60;45.70;;;;;;4955441;29;20180;-49
2023/09/13 00:23:25;;;;;;;1.67;1.00;;;24.50;45.70;;;;;;4955755;28;20240;-49
2023/09/13 00:25:51;;;;;;;2.13;1.33;;;24.50;46.00;;;;;;4955323;28;20216;-49
2023/09/13 00:28:17;;;;;;;2.03;1.10;;;24.40;46.20;;;;;;4955530;28;20181;-50
2023/09/13 00:30:43;;;;;;;2.33;1.87;;;24.30;46.40;;;;;;4955175;28;20204;-51
2023/09/13 00:33:08;;;;;;;2.07;1.70;;;24.30;46.30;;;;;;4955244;28;20705;-49
2023/09/13 00:35:35;;;;;;;1.30;0.63;;;24.30;46.40;;;;;;4954872;28;20599;-49
2023/09/13 00:38:01;;;;;;;2.40;1.47;;;24.30;46.50;;;;;;4955394;28;20193;-49
2023/09/13 00:40:26;;;;;;;2.43;1.53;;;24.30;46.40;;;;;;4955339;28;20779;-48
2023/09/13 00:42:53;;;;;;;1.93;1.63;;;24.30;46.60;;;;;;4955135;28;20220;-49
2023/09/13 00:45:19;;;;;;;2.20;1.47;;;24.40;46.30;;;;;;4955053;28;20187;-49
2023/09/13 00:47:46;;;;;;;2.20;1.70;;;24.40;47.20;;;;;;4955359;28;20432;-49
2023/09/13 00:50:15;;;;;;;4.90;1.80;;;24.30;46.40;;;;;;4955231;28;20427;-48
2023/09/13 00:52:42;;;;;;;1.83;1.07;;;24.30;46.70;;;;;;4955026;28;20416;-49
2023/09/13 00:55:10;;;;;;;2.60;1.50;;;24.20;46.40;;;;;;4954933;28;20412;-50
2023/09/13 00:57:36;;;;;;;4.90;2.53;;;24.20;46.30;;;;;;4954915;28;20532;-50
2023/09/13 01:00:09;;;;;;;2.80;2.00;;;24.30;46.40;;;;;;4954763;28;20795;-51
2023/09/13 01:02:37;;;;;;;2.10;1.20;;;24.30;46.80;;;;;;4954906;28;20424;-49
2023/09/13 01:05:05;;;;;;;1.73;1.30;;;24.20;46.30;;;;;;4954996;28;20478;-51
2023/09/13 01:07:32;;;;;;;1.93;1.33;;;24.20;46.90;;;;;;4954843;28;20507;-49
2023/09/13 01:09:58;;;;;;;2.17;1.40;;;24.30;47.20;;;;;;4954763;28;20420;-50
2023/09/13 01:12:24;;;;;;;2.33;1.30;;;24.20;47.50;;;;;;4954401;28;20929;-50
2023/09/13 01:14:50;;;;;;;2.27;2.03;;;24.10;47.80;;;;;;4954895;28;20413;-49
2023/09/13 01:17:43;;;;;;;2.73;1.73;;;24.00;47.90;;;;;;4954546;28;20519;-50
2023/09/13 01:20:52;;;;;;;3.40;2.07;;;24.00;48.80;;;;;;4952080;28;20842;-49
2023/09/13 01:23:27;;;;;;;3.70;2.00;;;24.00;47.80;;;;;;4954767;28;20507;-49
2023/09/13 01:26:29;;;;;;;1.60;1.47;;;24.10;47.80;;;;;;4954433;28;20474;-50
2023/09/13 01:28:56;;;;;;;2.43;2.23;;;24.20;47.20;;;;;;4954442;28;20411;-49
2023/09/13 01:31:24;;;;;;;5.03;2.30;;;24.30;47.10;;;;;;4954047;28;20415;-50
2023/09/13 01:33:50;;;;;;;3.90;2.30;;;24.30;46.90;;;;;;4954416;28;20598;-49
2023/09/13 01:36:16;;;;;;;2.20;1.20;;;24.50;46.70;;;;;;4954368;28;20467;-49
2023/09/13 01:38:41;;;;;;;2.13;1.67;;;24.50;46.60;;;;;;4954203;29;20483;-50
2023/09/13 01:41:15;;;;;;;1.93;1.27;;;24.60;46.40;;;;;;4954041;28;20169;-49
2023/09/13 01:43:42;;;;;;;3.70;2.97;;;24.60;46.30;;;;;;4954123;28;20416;-48
2023/09/13 01:46:10;;;;;;;2.23;1.57;;;24.60;46.30;;;;;;4953794;28;20463;-50
2023/09/13 01:48:37;;;;;;;1.20;0.80;;;24.60;46.90;;;;;;4954177;28;20409;-48
2023/09/13 01:51:03;;;;;;;2.13;1.70;;;24.50;46.40;;;;;;4954038;28;20752;-50
2023/09/13 01:53:29;;;;;;;2.83;1.50;;;24.50;46.30;;;;;;4954072;29;20452;-50
2023/09/13 01:55:55;;;;;;;2.63;2.27;;;24.60;46.30;;;;;;4954048;28;20491;-49
2023/09/13 01:58:21;;;;;;;4.17;2.13;;;24.60;47.10;;;;;;4953833;28;20463;-50
2023/09/13 02:00:46;;;;;;;1.43;1.17;;;24.60;46.50;;;;;;4953806;29;20532;-50
2023/09/13 02:03:13;;;;;;;2.90;1.90;;;24.70;46.80;;;;;;4953953;28;20192;-50
2023/09/13 02:05:39;;;;;;;3.50;2.20;;;24.70;47.00;;;;;;4953866;28;20659;-49
2023/09/13 02:08:05;;;;;;;2.73;2.53;;;24.70;46.80;;;;;;4953985;28;20491;-50
2023/09/13 02:10:30;;;;;;;2.33;2.00;;;24.80;46.80;;;;;;4953768;28;20643;-50
2023/09/13 02:12:59;;;;;;;2.07;1.83;;;24.80;46.30;;;;;;4953783;28;20424;-50
2023/09/13 02:15:27;;;;;;;2.20;1.80;;;24.80;46.50;;;;;;4953724;28;20200;-51
2023/09/13 02:17:52;;;;;;;2.40;1.73;;;24.80;46.80;;;;;;4953863;28;20423;-48
2023/09/13 02:20:18;;;;;;;3.70;1.93;;;24.80;46.80;;;;;;4953732;28;20450;-49
2023/09/13 02:22:44;;;;;;;1.93;1.63;;;24.80;47.50;;;;;;4953661;28;20247;-50
2023/09/13 02:25:09;;;;;;;3.03;1.70;;;24.70;47.10;;;;;;4953592;29;20217;-50
2023/09/13 02:27:35;;;;;;;3.00;1.93;;;24.70;47.80;;;;;;4953676;28;20179;-50
2023/09/13 02:30:04;;;;;;;1.87;1.60;;;24.70;47.70;;;;;;4953926;28;20192;-50
2023/09/13 02:32:30;;;;;;;3.57;2.63;;;24.70;48.20;;;;;;4953526;28;20719;-49
2023/09/13 02:34:56;;;;;;;2.93;2.40;;;24.70;47.70;;;;;;4953846;28;20423;-49
2023/09/13 02:37:22;;;;;;;4.50;3.17;;;24.70;48.50;;;;;;4953611;29;20428;-49
2023/09/13 02:39:47;;;;;;;2.30;1.40;;;24.60;48.90;;;;;;4953492;28;20205;-50
2023/09/13 02:42:13;;;;;;;2.07;1.43;;;24.60;48.20;;;;;;4953271;28;20177;-49
2023/09/13 02:44:40;;;;;;;2.37;2.17;;;24.60;48.30;;;;;;4953669;28;20224;-50
2023/09/13 02:47:06;;;;;;;1.83;1.53;;;24.60;48.50;;;;;;4953647;28;20204;-49
2023/09/13 02:49:32;;;;;;;2.30;1.80;;;24.60;49.10;;;;;;4953560;29;20507;-50
2023/09/13 02:51:58;;;;;;;2.60;1.83;;;24.60;49.00;;;;;;4953367;28;20416;-50
2023/09/13 02:54:24;;;;;;;4.13;2.50;;;24.50;49.40;;;;;;4953419;29;20568;-49
2023/09/13 02:56:50;;;;;;;2.30;1.90;;;24.60;49.00;;;;;;4953480;28;20192;-51
2023/09/13 02:59:16;;;;;;;2.03;1.40;;;24.60;49.00;;;;;;4957215;28;20218;-49
2023/09/13 03:01:42;;;;;;;3.00;1.80;;;24.70;48.80;;;;;;4957096;28;20416;-50
2023/09/13 03:04:09;;;;;;;2.27;1.40;;;24.60;49.10;;;;;;4957174;29;20205;-49
2023/09/13 03:06:34;;;;;;;3.57;2.37;;;24.70;49.10;;;;;;4956941;28;20436;-49
2023/09/13 03:09:00;;;;;;;2.27;1.83;;;24.70;49.00;;;;;;4956983;28;20404;-50
2023/09/13 03:11:26;;;;;;;1.60;1.40;;;24.70;48.80;;;;;;4956659;29;20184;-50
2023/09/13 03:13:51;;;;;;;2.27;1.57;;;24.80;48.90;;;;;;4957108;29;20184;-49
2023/09/13 03:16:19;;;;;;;3.53;2.93;;;24.70;48.30;;;;;;4956792;28;20804;-49
2023/09/13 03:18:47;;;;;;;3.03;2.03;;;24.70;48.80;;;;;;4956689;28;20456;-49
2023/09/13 03:21:13;;;;;;;5.03;2.13;;;24.70;48.60;;;;;;4956558;28;20491;-50
2023/09/13 03:23:42;;;;;;;3.60;2.20;;;24.70;48.60;;;;;;4956699;28;20997;-49
2023/09/13 03:26:24;;;;;;;2.97;2.33;;;24.70;49.10;;;;;;4956601;28;20515;-49
2023/09/13 03:28:52;;;;;;;1.83;1.33;;;24.70;48.40;;;;;;4956762;28;20436;-50
2023/09/13 03:31:20;;;;;;;2.07;1.80;;;24.70;48.20;;;;;;4956377;28;20811;-50
2023/09/13 03:33:47;;;;;;;1.20;0.87;;;24.60;48.60;;;;;;4956561;28;20423;-49
2023/09/13 03:36:14;;;;;;;3.10;2.20;;;24.60;48.30;;;;;;4956362;28;20436;-49
2023/09/13 03:38:41;;;;;;;2.33;1.93;;;24.60;48.50;;;;;;4956560;28;20460;-49
2023/09/13 03:41:11;;;;;;;3.00;2.27;;;24.60;49.10;;;;;;4956179;28;20409;-49
2023/09/13 03:43:37;;;;;;;3.37;2.30;;;24.50;48.60;;;;;;4956396;28;20843;-49
2023/09/13 03:46:05;;;;;;;4.17;2.77;;;24.50;49.00;;;;;;4956347;28;20467;-49
2023/09/13 03:48:32;;;;;;;2.23;1.67;;;24.40;48.90;;;;;;4956238;28;20540;-50
2023/09/13 03:50:58;;;;;;;4.83;3.20;;;24.40;49.40;;;;;;4955953;28;20420;-48
2023/09/13 03:53:24;;;;;;;2.67;1.23;;;24.30;49.40;;;;;;4956247;28;20452;-48
2023/09/13 03:55:50;;;;;;;3.10;2.43;;;24.30;49.40;;;;;;4956214;28;20440;-49
2023/09/13 03:58:16;;;;;;;2.00;1.50;;;24.30;49.40;;;;;;4956013;28;20460;-48
2023/09/13 04:00:42;;;;;;;3.50;1.80;;;24.20;49.50;;;;;;4955882;29;20500;-49
2023/09/13 04:03:08;;;;;;;2.60;1.97;;;24.20;49.70;;;;;;4956021;28;20267;-49
2023/09/13 04:05:34;;;;;;;3.20;2.60;;;24.20;49.50;;;;;;4955828;28;20428;-49
2023/09/13 04:08:00;;;;;;;10.40;3.00;;;24.20;49.20;;;;;;4955710;28;20420;-49
2023/09/13 04:10:26;;;;;;;2.77;1.73;;;24.20;48.90;;;;;;4955805;28;20177;-49
2023/09/13 04:12:51;;;;;;;4.47;2.77;;;24.20;48.60;;;;;;4955694;28;20420;-49
2023/09/13 04:15:17;;;;;;;2.73;2.07;;;24.20;48.30;;;;;;4955727;29;20176;-50
2023/09/13 04:17:43;;;;;;;3.10;2.03;;;24.20;48.50;;;;;;4955706;28;20177;-51
2023/09/13 04:20:10;;;;;;;3.00;2.50;;;24.20;48.40;;;;;;4955488;28;20766;-48
2023/09/13 04:22:36;;;;;;;2.40;1.57;;;24.10;48.60;;;;;;4955666;28;20176;-50
2023/09/13 04:25:03;;;;;;;3.13;1.77;;;24.10;48.60;;;;;;4955618;28;20412;-50
2023/09/13 04:27:28;;;;;;;3.23;2.07;;;24.10;49.00;;;;;;4955452;28;20435;-49
2023/09/13 04:29:57;;;;;;;2.17;1.63;;;24.00;49.10;;;;;;4955566;28;20807;-48
2023/09/13 04:32:26;;;;;;;2.43;1.97;;;23.90;49.60;;;;;;4955245;28;20255;-50
2023/09/13 04:34:52;;;;;;;4.50;3.00;;;23.90;49.70;;;;;;4955425;28;20415;-50
2023/09/13 04:37:18;;;;;;;2.73;1.50;;;23.90;49.80;;;;;;4955302;28;21009;-50
2023/09/13 04:39:44;;;;;;;4.57;2.47;;;23.90;49.60;;;;;;4955372;28;20468;-50
2023/09/13 04:42:11;;;;;;;2.33;2.13;;;23.90;49.70;;;;;;4955215;28;20952;-49
2023/09/13 04:44:37;;;;;;;3.10;2.27;;;23.90;49.60;;;;;;4955286;28;20177;-50
2023/09/13 04:47:03;;;;;;;2.23;1.10;;;23.90;49.40;;;;;;4954969;29;20424;-48
2023/09/13 04:49:29;;;;;;;2.37;2.00;;;23.90;49.30;;;;;;4955094;28;20451;-48
2023/09/13 04:51:57;;;;;;;3.00;2.20;;;23.90;49.60;;;;;;4954940;28;20411;-49
2023/09/13 04:54:23;;;;;;;2.13;1.30;;;23.90;49.30;;;;;;4955022;28;20444;-50
2023/09/13 04:56:52;;;;;;;2.90;2.00;;;23.90;49.20;;;;;;4954973;28;20428;-49
2023/09/13 04:59:18;;;;;;;2.10;1.10;;;23.90;49.00;;;;;;4954876;28;20483;-49
2023/09/13 05:01:45;;;;;;;3.47;1.97;;;23.90;49.10;;;;;;4954626;28;20408;-50
2023/09/13 05:04:10;;;;;;;3.40;2.47;;;23.90;49.00;;;;;;4955094;28;20436;-48
2023/09/13 05:06:37;;;;;;;1.87;1.47;;;23.90;49.10;;;;;;4954683;28;20474;-48
2023/09/13 05:09:04;;;;;;;2.33;1.50;;;23.90;49.20;;;;;;4954741;28;20424;-48
2023/09/13 05:11:30;;;;;;;2.00;1.40;;;23.80;49.20;;;;;;4954496;28;20427;-49
2023/09/13 05:14:12;;;;;;;2.80;1.77;;;23.80;49.60;;;;;;4954720;28;20408;-49
2023/09/13 05:16:38;;;;;;;2.67;1.73;;;23.80;49.30;;;;;;4954633;28;20451;-49
2023/09/13 05:19:04;;;;;;;2.23;1.90;;;23.80;49.60;;;;;;4954661;29;20472;-50
2023/09/13 05:21:30;;;;;;;2.43;1.70;;;23.70;49.80;;;;;;4953739;28;20184;-48
2023/09/13 05:23:55;;;;;;;3.67;1.30;;;23.70;49.90;;;;;;4954524;28;20527;-48
2023/09/13 05:26:21;;;;;;;3.40;2.10;;;23.70;49.90;;;;;;4954338;28;20204;-48
2023/09/13 05:28:47;;;;;;;2.20;1.17;;;23.70;49.90;;;;;;4954446;28;20173;-48
2023/09/13 05:31:14;;;;;;;2.10;1.30;;;23.80;49.90;;;;;;4954402;28;20189;-50
2023/09/13 05:33:40;;;;;;;2.57;1.93;;;23.80;50.10;;;;;;4954362;28;20419;-50
2023/09/13 05:36:10;;;;;;;2.33;1.33;;;23.80;50.10;;;;;;4954287;28;20440;-48
2023/09/13 05:38:36;;;;;;;1.73;1.60;;;23.90;50.20;;;;;;4954215;28;20551;-48
2023/09/13 05:41:09;;;;;;;2.80;1.93;;;23.90;50.20;;;;;;4954115;28;20886;-51
2023/09/13 05:43:35;;;;;;;1.30;1.03;;;24.00;50.20;;;;;;4954179;28;20415;-47
2023/09/13 05:46:01;;;;;;;2.03;1.83;;;24.10;50.50;;;;;;4954092;28;21060;-48
2023/09/13 05:48:27;;;;;;;2.17;1.07;;;24.10;50.40;;;;;;4954137;29;20459;-51
2023/09/13 05:50:53;;;;;;;1.77;1.40;;;24.20;50.70;;;;;;4953860;29;20177;-48
2023/09/13 05:53:21;;;;;;;1.57;1.47;;;24.30;50.60;;;;;;4954149;28;20181;-47
2023/09/13 05:55:48;;;;;;;1.57;0.80;;;24.30;50.50;;;;;;4953880;29;20954;-51
2023/09/13 05:58:14;;;;;;;1.63;1.30;;;24.30;50.60;;;;;;4953947;28;20424;-48
2023/09/13 06:00:47;;;;;;;2.57;1.60;;;24.30;50.80;;;;;;4953777;28;20966;-51
2023/09/13 06:03:16;;;;;;;2.30;1.63;;;24.40;50.50;;;;;;4953981;28;20412;-47
2023/09/13 06:05:41;;;;;;;2.50;1.10;;;24.40;50.60;;;;;;4953888;28;20460;-52
2023/09/13 06:08:07;;;;;;;2.43;1.37;;;24.40;50.20;;;;;;4953908;28;20507;-50
2023/09/13 06:10:33;;;;;;;1.50;1.00;;;24.50;50.00;;;;;;4953689;28;20718;-50
2023/09/13 06:12:59;;;;;;;1.50;1.00;;;24.60;50.00;;;;;;4953899;28;20651;-51
2023/09/13 06:15:24;;;;;;;1.97;1.20;;;24.60;50.00;;;;;;4953791;28;20259;-48
2023/09/13 06:17:54;;;;;;;2.53;1.13;;;24.70;50.30;;;;;;4953832;28;20231;-48
2023/09/13 06:20:21;;;;;;;2.80;1.50;;;24.80;50.10;;;;;;4953769;28;20208;-47
2023/09/13 06:22:47;;;;;;;2.07;1.43;;;24.90;50.10;;;;;;4953576;28;20413;-50
2023/09/13 06:25:16;;;;;;;3.23;2.13;;;25.00;49.90;;;;;;4953745;28;20428;-51
2023/09/13 06:27:43;;;;;;;2.93;1.80;;;25.10;49.50;;;;;;4953995;28;20187;-47
2023/09/13 06:30:09;;;;;;;1.67;1.40;;;25.20;49.20;;;;;;4953737;28;20415;-48
2023/09/13 06:32:35;;;;;;;3.30;2.53;;;25.20;49.20;;;;;;4956572;28;20439;-50
2023/09/13 06:35:00;;;;;;;2.90;1.13;;;25.30;49.20;;;;;;4957593;28;20823;-48
2023/09/13 06:37:26;;;;;;;1.43;1.23;;;25.30;49.00;;;;;;4957293;28;20444;-48
2023/09/13 06:39:54;;;;;;;2.07;1.63;;;25.30;49.00;;;;;;4957635;28;20215;-52
2023/09/13 06:42:20;;;;;;;3.07;1.33;;;25.30;49.00;;;;;;4957495;28;20230;-48
2023/09/13 06:44:46;;;;;;;1.77;1.40;;;25.30;48.70;;;;;;4957447;28;20503;-50
2023/09/13 06:47:11;;;;;;;3.97;2.17;;;25.30;48.50;;;;;;4957330;28;20428;-51
2023/09/13 06:49:37;;;;;;;3.10;2.03;;;25.30;48.40;;;;;;4957489;28;20427;-49
2023/09/13 06:52:03;;;;;;;1.70;1.43;;;25.30;48.00;;;;;;4957033;28;20697;-49
2023/09/13 06:54:29;;;;;;;2.87;1.50;;;25.30;48.20;;;;;;4957467;29;20320;-49
2023/09/13 06:56:54;;;;;;;1.73;1.43;;;25.40;48.10;;;;;;4957328;28;20463;-50
2023/09/13 06:59:20;;;;;;;1.70;1.30;;;25.50;47.80;;;;;;4957253;29;20274;-49
2023/09/13 07:01:46;;;;;;;2.47;2.03;;;25.50;47.70;;;;;;4957026;29;20259;-48
2023/09/13 07:04:13;;;;;;;2.10;1.40;;;25.70;47.70;;;;;;4957109;28;20728;-51
2023/09/13 07:06:40;;;;;;;2.67;1.83;;;25.70;47.70;;;;;;4956814;28;20491;-52
2023/09/13 07:09:05;;;;;;;2.30;1.33;;;25.80;47.40;;;;;;4957010;28;20479;-48
2023/09/13 07:11:31;;;;;;;2.47;1.60;;;25.90;46.90;;;;;;4956966;28;20424;-49
2023/09/13 07:13:59;;;;;;;3.37;1.67;;;26.00;47.20;;;;;;4957105;28;20431;-51
2023/09/13 07:16:25;;;;;;;3.83;1.17;;;26.00;46.80;;;;;;4956891;28;20200;-48
2023/09/13 07:18:51;;;;;;;2.70;1.33;;;26.10;46.70;;;;;;4956725;28;20855;-52
2023/09/13 07:21:17;;;;;;;3.03;2.67;;;26.10;46.70;;;;;;4956454;28;20408;-49
2023/09/13 07:23:44;;;;;;;2.33;1.63;;;26.20;46.30;;;;;;4956702;28;20184;-52
2023/09/13 07:26:10;;;;;;;1.57;1.13;;;26.20;46.70;;;;;;4956639;28;20526;-49
2023/09/13 07:28:36;;;;;;;1.80;1.50;;;26.20;46.70;;;;;;4956763;28;20918;-49
2023/09/13 07:31:07;;;;;;;1.60;1.20;;;26.20;46.50;;;;;;4956486;28;20181;-51
2023/09/13 07:33:33;;;;;;;2.50;1.47;;;26.20;46.50;;;;;;4956602;28;20463;-50
2023/09/13 07:35:59;;;;;;;2.13;1.33;;;26.30;46.40;;;;;;4956535;29;20436;-49
2023/09/13 07:38:24;;;;;;;2.37;1.40;;;26.30;46.50;;;;;;4956373;28;20969;-50
2023/09/13 07:40:50;;;;;;;2.67;1.93;;;26.30;45.90;;;;;;4956487;29;20180;-48
2023/09/13 07:43:16;;;;;;;2.13;1.43;;;26.20;45.80;;;;;;4955792;28;20169;-49
2023/09/13 07:45:42;;;;;;;2.13;1.47;;;26.20;46.10;;;;;;4956295;29;20599;-52
2023/09/13 07:48:08;;;;;;;3.20;2.13;;;26.20;46.20;;;;;;4956305;28;20655;-51
2023/09/13 07:50:40;;;;;;;1.97;1.30;;;26.30;46.30;;;;;;4956040;28;20412;-49
2023/09/13 07:53:07;;;;;;;1.90;1.67;;;26.30;46.20;;;;;;4956413;28;20400;-51
2023/09/13 07:55:33;;;;;;;1.80;1.20;;;26.40;46.20;;;;;;4956128;28;20424;-51
2023/09/13 07:58:00;;;;;;;1.30;1.00;;;26.40;45.90;;;;;;4956194;28;20408;-48
2023/09/13 08:00:26;;;;;;;1.77;1.03;;;26.40;46.00;;;;;;4955947;28;20484;-49
2023/09/13 08:02:51;;;;;;;1.60;1.17;;;26.40;45.90;;;;;;4955830;28;20852;-50
2023/09/13 08:05:17;;;;;;;2.10;1.30;;;26.40;45.30;;;;;;4955850;28;20243;-48
2023/09/13 08:07:46;;;;;;;2.73;2.53;;;26.40;45.80;;;;;;4955962;28;20444;-50
2023/09/13 08:10:13;;;;;;;1.50;0.93;;;26.40;45.90;;;;;;4955848;29;20416;-51
2023/09/13 08:12:39;;;;;;;1.60;1.40;;;26.50;46.20;;;;;;4955696;28;20827;-48
2023/09/13 08:15:05;;;;;;;1.10;0.50;;;26.60;46.10;;;;;;4955818;28;20420;-48
2023/09/13 08:17:33;;;;;;;1.17;0.70;;;26.60;46.30;;;;;;4955416;28;20519;-50
2023/09/13 08:19:59;;;;;;;1.10;0.40;;;26.70;46.20;;;;;;4955801;28;20483;-49
2023/09/13 08:22:24;;;;;;;1.10;0.60;;;26.70;46.00;;;;;;4955447;28;20412;-47
2023/09/13 08:24:50;;;;;;;1.57;1.27;;;26.80;45.80;;;;;;4955662;28;20401;-51
2023/09/13 08:27:16;;;;;;;1.57;1.33;;;26.80;45.90;;;;;;4955442;28;20452;-50
2023/09/13 08:29:42;;;;;;;1.40;1.10;;;26.80;46.20;;;;;;4955562;28;20184;-48
2023/09/13 08:32:07;;;;;;;3.67;1.20;;;26.90;46.70;;;;;;4955321;28;20173;-47
2023/09/13 08:34:35;;;;;;;3.40;0.97;;;26.90;46.00;;;;;;4955417;29;20228;-51
2023/09/13 08:37:01;;;;;;;1.00;0.40;;;26.90;46.30;;;;;;4955330;28;20192;-50
2023/09/13 08:39:26;;;;;;;1.00;0.40;;;26.90;46.40;;;;;;4954015;28;20467;-52
2023/09/13 08:41:54;;;;;;;1.77;1.33;;;26.90;45.10;;;;;;4955154;28;20427;-49
2023/09/13 08:44:21;;;;;;;1.47;0.73;;;26.90;44.00;;;;;;4955313;28;20248;-48
2023/09/13 08:46:55;;;;;;;1.20;0.80;;;26.90;44.80;;;;;;4955057;28;20424;-49
2023/09/13 08:49:21;;;;;;;1.30;0.70;;;27.00;44.40;;;;;;4955336;28;20409;-50
2023/09/13 08:51:47;;;;;;;1.10;0.50;;;27.00;43.80;;;;;;4955091;28;20426;-47
2023/09/13 08:54:14;;;;;;;1.20;0.60;;;27.10;43.00;;;;;;4954819;28;20448;-49
2023/09/13 08:56:43;;;;;;;2.57;0.90;;;27.10;40.90;;;;;;4954465;28;20433;-47
2023/09/13 08:59:17;;;;;;;1.40;0.57;;;27.10;43.00;;;;;;4954872;28;20443;-51
2023/09/13 09:01:49;;;;;;;1.00;0.40;;;27.10;42.50;;;;;;4954951;28;20411;-48
2023/09/13 09:04:19;;;;;;;1.00;0.40;;;27.20;43.10;;;;;;4955136;28;20432;-48
2023/09/13 09:06:46;;;;;;;1.00;0.30;;;27.20;42.90;;;;;;4954908;28;20795;-49
2023/09/13 09:09:19;;;;;;;1.40;0.93;;;27.30;43.90;;;;;;4954816;28;20412;-51
2023/09/13 09:11:50;;;;;;;1.30;0.83;;;27.50;43.40;;;;;;4954506;28;20412;-48
2023/09/13 09:14:16;;;;;;;1.20;0.43;;;27.70;43.00;;;;;;4954710;28;20412;-49
2023/09/13 09:16:44;;;;;;;4.20;0.90;;;27.90;42.40;;;;;;4954581;28;20945;-50
2023/09/13 09:19:10;;;;;;;1.40;0.63;;;28.00;42.60;;;;;;4954515;28;20458;-49
2023/09/13 09:21:37;;;;;;;1.30;0.80;;;28.20;42.40;;;;;;4954414;28;20404;-50
2023/09/13 09:24:03;;;;;;;2.13;1.70;;;28.30;42.10;;;;;;4954504;28;20419;-51
2023/09/13 09:26:29;;;;;;;1.10;0.50;;;28.40;40.20;;;;;;4954296;28;21329;-49
2023/09/13 09:29:08;;;;;;;1.10;0.60;;;28.50;41.80;;;;;;4954526;29;20512;-51
2023/09/13 09:31:34;;;;;;;2.40;1.47;;;28.60;41.30;;;;;;4954439;28;20180;-52
2023/09/13 09:34:03;;;;;;;2.77;0.87;;;28.80;41.00;;;;;;4954433;28;20553;-49
2023/09/13 09:36:34;;;;;;;1.30;0.83;;;28.90;40.80;;;;;;4954269;28;20710;-47
2023/09/13 09:39:04;;;;;;;1.57;0.90;;;28.90;40.50;;;;;;4954518;28;20468;-51
2023/09/13 09:41:34;;;;;;;1.10;0.50;;;28.90;39.50;;;;;;4954276;28;20400;-51
2023/09/13 09:43:59;;;;;;;1.10;0.70;;;29.00;40.30;;;;;;4954249;28;20491;-51
2023/09/13 09:46:25;;;;;;;2.20;2.00;;;29.00;39.90;;;;;;4954229;28;20523;-50
2023/09/13 09:48:52;;;;;;;1.20;0.70;;;29.00;39.80;;;;;;4954161;28;20435;-48
2023/09/13 09:51:18;;;;;;;2.33;1.60;;;29.00;39.80;;;;;;4953900;28;20228;-49
2023/09/13 09:53:44;;;;;;;1.63;1.23;;;29.10;39.30;;;;;;4954071;28;20409;-50
2023/09/13 09:56:14;;;;;;;1.30;0.87;;;29.10;39.80;;;;;;4954078;28;20432;-49
2023/09/13 09:58:41;;;;;;;2.57;1.03;;;29.10;40.50;;;;;;4954031;28;20535;-49
2023/09/13 10:01:07;;;;;;;2.17;0.93;;;29.20;40.60;;;;;;4953864;28;20408;-51
2023/09/13 10:03:34;;;;;;;1.80;1.30;;;29.40;39.90;;;;;;4953962;28;20412;-51
2023/09/13 10:06:06;;;;;;;1.33;0.90;;;29.40;38.50;;;;;;4953548;28;20431;-50
2023/09/13 10:08:48;;;;;;;1.30;0.73;;;29.50;38.40;;;;;;4954153;28;20862;-50
2023/09/13 10:11:16;;;;;;;1.30;0.73;;;29.50;39.90;;;;;;4952561;29;21022;-50
2023/09/13 10:13:46;;;;;;;1.80;0.90;;;29.40;39.20;;;;;;4953914;28;20404;-51
2023/09/13 10:16:14;;;;;;;1.37;1.07;;;29.60;39.70;;;;;;4953709;28;20526;-52
2023/09/13 10:18:52;;;;;;;1.40;0.50;;;29.60;39.80;;;;;;4953949;28;20467;-47
2023/09/13 10:21:26;;;;;;;1.20;0.80;;;29.70;39.40;;;;;;4953806;28;20415;-50
2023/09/13 10:24:06;;;;;;;1.10;0.50;;;29.70;39.70;;;;;;4953893;28;20455;-50
2023/09/13 10:26:32;;;;;;;1.77;1.00;;;29.80;39.50;;;;;;4953605;28;20467;-51
2023/09/13 10:29:17;;;;;;;2.07;1.87;;;29.80;39.00;;;;;;4952521;29;20567;-52
2023/09/13 10:31:51;;;;;;;1.40;0.73;;;29.80;39.10;;;;;;4953584;29;20504;-51
2023/09/13 10:34:27;;;;;;;1.27;0.90;;;29.90;39.20;;;;;;4953725;28;20447;-49
2023/09/13 10:37:10;;;;;;;1.50;1.03;;;29.90;38.30;;;;;;4953663;28;20447;-50
2023/09/13 10:39:55;;;;;;;1.20;0.90;;;29.90;38.40;;;;;;4953623;28;20458;-50
2023/09/13 10:42:21;;;;;;;2.00;1.00;;;30.00;39.20;;;;;;4953594;28;20499;-49
2023/09/13 10:44:48;;;;;;;1.20;0.80;;;30.00;37.30;;;;;;4953696;28;20432;-52
2023/09/13 10:47:15;;;;;;;1.20;0.70;;;29.90;36.40;;;;;;4953550;28;20424;-48
2023/09/13 10:49:42;;;;;;;2.37;1.17;;;29.80;37.90;;;;;;4953520;28;20494;-52
2023/09/13 10:52:09;;;;;;;1.10;0.50;;;29.90;38.40;;;;;;4953340;28;20412;-51
2023/09/13 10:54:38;;;;;;;1.50;0.87;;;30.00;36.70;;;;;;4953756;28;20776;-50
2023/09/13 10:57:05;;;;;;;2.10;1.33;;;30.00;38.50;;;;;;4953579;28;20482;-47
2023/09/13 10:59:32;;;;;;;1.80;1.10;;;30.10;38.80;;;;;;4953505;28;20451;-51
2023/09/13 11:01:58;;;;;;;1.10;0.50;;;30.30;38.20;;;;;;4953193;28;20498;-50
2023/09/13 11:04:25;;;;;;;1.20;0.80;;;30.30;38.60;;;;;;4952249;28;20447;-48
2023/09/13 11:06:53;;;;;;;1.20;0.70;;;30.20;37.70;;;;;;4953448;28;20455;-49
2023/09/13 11:09:32;;;;;;;1.10;0.70;;;30.30;38.80;;;;;;4953397;28;20415;-50
2023/09/13 11:11:58;;;;;;;1.40;0.93;;;30.30;37.60;;;;;;4953201;28;20509;-50
2023/09/13 11:14:29;;;;;;;2.03;1.03;;;30.20;37.30;;;;;;4953407;28;20408;-49
2023/09/13 11:16:57;;;;;;;1.70;0.93;;;30.20;37.20;;;;;;4953303;28;20491;-49
2023/09/13 11:19:30;;;;;;;1.80;1.03;;;30.20;36.50;;;;;;4955829;28;20458;-49
2023/09/13 11:22:04;;;;;;;1.87;1.00;;;30.10;37.30;;;;;;4956705;29;20400;-51
2023/09/13 11:24:43;;;;;;;1.20;0.60;;;30.10;36.90;;;;;;4956771;28;20411;-50
2023/09/13 11:27:14;;;;;;;1.60;0.70;;;29.90;36.10;;;;;;4956466;28;20455;-51
2023/09/13 11:29:44;;;;;;;1.33;0.70;;;29.70;36.90;;;;;;4956619;28;20947;-52
2023/09/13 11:32:18;;;;;;;1.20;0.67;;;29.50;36.30;;;;;;4956265;28;20503;-48
2023/09/13 11:34:45;;;;;;;1.10;0.60;;;29.40;36.70;;;;;;4956554;28;20503;-51
2023/09/13 11:37:11;;;;;;;1.30;0.63;;;29.10;36.80;;;;;;4956596;28;20520;-48
2023/09/13 11:39:39;;;;;;;2.73;1.50;;;29.00;36.30;;;;;;4956325;28;20459;-50
2023/09/13 11:42:08;;;;;;;1.40;0.80;;;28.90;36.70;;;;;;4956435;28;20420;-48
2023/09/13 11:44:35;;;;;;;1.83;0.77;;;28.80;36.90;;;;;;4956368;28;20403;-50
2023/09/13 11:47:01;;;;;;;1.50;0.90;;;28.60;37.30;;;;;;4956389;28;20846;-50
2023/09/13 11:49:28;;;;;;;1.10;0.50;;;28.60;37.10;;;;;;4956254;28;20444;-48
2023/09/13 11:52:00;;;;;;;1.13;0.60;;;28.60;37.90;;;;;;4956019;28;20470;-50
2023/09/13 11:54:26;;;;;;;1.20;0.60;;;28.60;37.90;;;;;;4956494;28;20423;-47
2023/09/13 11:56:54;;;;;;;1.20;0.40;;;28.50;38.00;;;;;;4956118;28;20437;-48
2023/09/13 11:59:24;;;;;;;1.30;0.50;;;28.50;38.10;;;;;;4956155;28;20526;-50
2023/09/13 12:01:51;;;;;;;1.30;0.70;;;28.40;38.20;;;;;;4955801;28;20449;-49
2023/09/13 12:04:17;;;;;;;1.40;0.50;;;28.40;38.80;;;;;;4956118;28;20408;-50
2023/09/13 12:06:45;;;;;;;1.33;0.80;;;28.40;38.30;;;;;;4955945;28;20426;-51
2023/09/13 12:09:19;;;;;;;1.20;0.80;;;28.40;38.50;;;;;;4955957;28;20401;-49
2023/09/13 12:11:49;;;;;;;1.40;0.53;;;28.30;38.50;;;;;;4955848;28;20413;-50
2023/09/13 12:14:15;;;;;;;1.10;0.50;;;28.20;38.20;;;;;;4955973;28;20542;-49
2023/09/13 12:16:42;;;;;;;1.20;0.57;;;28.30;38.00;;;;;;4955762;28;20435;-52
2023/09/13 12:19:10;;;;;;;1.40;0.87;;;28.30;38.40;;;;;;4955614;28;20455;-48
2023/09/13 12:21:36;;;;;;;1.00;0.40;;;28.30;38.30;;;;;;4955774;28;20475;-51
2023/09/13 12:24:02;;;;;;;1.47;0.50;;;28.20;37.90;;;;;;4955702;28;20448;-49
2023/09/13 12:26:28;;;;;;;1.50;0.77;;;28.10;38.10;;;;;;4955597;28;20213;-47
2023/09/13 12:28:55;;;;;;;1.33;0.80;;;28.10;38.80;;;;;;4955474;28;20572;-49
2023/09/13 12:31:21;;;;;;;1.10;0.40;;;28.10;38.70;;;;;;4955321;28;20511;-51
2023/09/13 12:33:49;;;;;;;1.00;0.40;;;28.20;39.00;;;;;;4955459;28;20508;-50
2023/09/13 12:36:16;;;;;;;1.10;0.40;;;28.20;38.80;;;;;;4954175;28;20432;-52
2023/09/13 12:38:42;;;;;;;1.10;0.60;;;28.20;39.40;;;;;;4955427;28;20456;-48
2023/09/13 12:41:09;;;;;;;2.17;0.87;;;28.20;39.30;;;;;;4955146;29;20911;-50
2023/09/13 12:43:36;;;;;;;1.20;0.53;;;28.20;39.20;;;;;;4955340;28;20177;-50
2023/09/13 12:46:03;;;;;;;1.10;0.40;;;28.20;39.20;;;;;;4955209;28;20797;-48
2023/09/13 12:48:29;;;;;;;1.00;0.40;;;28.40;39.30;;;;;;4955164;28;20504;-50
2023/09/13 12:50:55;;;;;;;1.30;0.50;;;28.40;38.70;;;;;;4955141;28;20419;-52